sensor_id;sensor_type;location;lat;lon;timestamp;pressure;altitude;pressure_sealevel;temperature;humidity
73234;BME280;62293;-26.174;27.908;2022-08-20T07:21:41;83812.49;;;18.98;18.38
73234;BME280;62293;-26.174;27.908;2022-08-20T07:24:06;83819.02;;;19.06;18.23
73234;BME280;62293;-26.174;27.908;2022-08-20T07:26:31;83815.50;;;19.25;18.12
73234;BME280;62293;-26.174;27.908;2022-08-20T07:28:57;83804.38;;;19.19;18.04
73234;BME280;62293;-26.174;27.908;2022-08-20T07:31:22;83810.92;;;19.38;17.98
73234;BME280;62293;-26.174;27.908;2022-08-20T07:33:48;83813.92;;;19.47;18.08
73234;BME280;62293;-26.174;27.908;2022-08-20T07:36:13;83816.66;;;19.65;17.95
73234;BME280;62293;-26.174;27.908;2022-08-20T07:38:39;83818.00;;;19.51;17.97
73234;BME280;62293;-26.174;27.908;2022-08-20T07:41:06;83814.21;;;19.56;17.85
73234;BME280;62293;-26.174;27.908;2022-08-20T07:43:32;83809.86;;;19.81;17.67
73234;BME280;62293;-26.174;27.908;2022-08-20T07:45:58;83808.26;;;20.07;17.59
73234;BME280;62293;-26.174;27.908;2022-08-20T07:48:21;83811.98;;;19.42;17.60
73234;BME280;62293;-26.174;27.908;2022-08-20T07:50:45;83806.74;;;20.35;17.48
73234;BME280;62293;-26.174;27.908;2022-08-20T07:53:10;83806.61;;;20.31;17.42
73234;BME280;62293;-26.174;27.908;2022-08-20T07:55:36;83806.14;;;20.14;17.29
73234;BME280;62293;-26.174;27.908;2022-08-20T07:58:07;83802.89;;;20.19;17.35
73234;BME280;62293;-26.174;27.908;2022-08-20T08:00:28;83803.78;;;19.80;17.58
73234;BME280;62293;-26.174;27.908;2022-08-20T08:02:51;83805.02;;;20.19;17.58
73234;BME280;62293;-26.174;27.908;2022-08-20T08:05:17;83803.39;;;20.20;17.28
73234;BME280;62293;-26.174;27.908;2022-08-20T08:07:43;83804.41;;;19.51;17.32
73234;BME280;62293;-26.174;27.908;2022-08-20T08:10:10;83809.26;;;20.70;17.00
73234;BME280;62293;-26.174;27.908;2022-08-20T08:12:37;83816.40;;;20.31;17.17
73234;BME280;62293;-26.174;27.908;2022-08-20T08:14:58;83807.33;;;20.44;16.96
73234;BME280;62293;-26.174;27.908;2022-08-20T08:17:23;83790.10;;;20.88;16.91
73234;BME280;62293;-26.174;27.908;2022-08-20T08:19:50;83783.85;;;20.35;16.87
73234;BME280;62293;-26.174;27.908;2022-08-20T08:22:15;83779.41;;;20.93;16.62
73234;BME280;62293;-26.174;27.908;2022-08-20T08:24:40;83777.50;;;20.75;16.46
73234;BME280;62293;-26.174;27.908;2022-08-20T08:27:04;83773.95;;;20.27;16.62
73234;BME280;62293;-26.174;27.908;2022-08-20T08:29:30;83772.38;;;21.03;16.43
73234;BME280;62293;-26.174;27.908;2022-08-20T08:31:56;83770.27;;;20.68;16.39
73234;BME280;62293;-26.174;27.908;2022-08-20T08:34:20;83770.72;;;20.51;16.13
73234;BME280;62293;-26.174;27.908;2022-08-20T08:36:45;83776.94;;;20.80;16.08
73234;BME280;62293;-26.174;27.908;2022-08-20T08:39:11;83764.00;;;20.88;15.94
73234;BME280;62293;-26.174;27.908;2022-08-20T08:41:40;83754.26;;;20.74;15.97
73234;BME280;62293;-26.174;27.908;2022-08-20T08:44:05;83766.18;;;21.04;15.79
73234;BME280;62293;-26.174;27.908;2022-08-20T08:46:28;83753.79;;;22.19;14.41
73234;BME280;62293;-26.174;27.908;2022-08-20T08:48:55;83771.33;;;22.86;12.69
73234;BME280;62293;-26.174;27.908;2022-08-20T08:51:24;83785.19;;;21.94;13.45
73234;BME280;62293;-26.174;27.908;2022-08-20T08:53:46;83781.05;;;22.90;12.42
73234;BME280;62293;-26.174;27.908;2022-08-20T08:56:09;83767.05;;;21.57;13.04
73234;BME280;62293;-26.174;27.908;2022-08-20T08:58:33;83762.30;;;22.38;13.02
73234;BME280;62293;-26.174;27.908;2022-08-20T09:01:00;83768.42;;;22.49;13.11
73234;BME280;62293;-26.174;27.908;2022-08-20T09:03:26;83772.41;;;23.05;13.21
73234;BME280;62293;-26.174;27.908;2022-08-20T09:05:52;83772.53;;;22.10;13.37
73234;BME280;62293;-26.174;27.908;2022-08-20T09:08:16;83772.36;;;22.08;13.58
73234;BME280;62293;-26.174;27.908;2022-08-20T09:10:39;83768.94;;;21.98;13.79
73234;BME280;62293;-26.174;27.908;2022-08-20T09:13:05;83768.62;;;21.86;13.90
73234;BME280;62293;-26.174;27.908;2022-08-20T09:15:30;83761.47;;;22.03;13.85
73234;BME280;62293;-26.174;27.908;2022-08-20T09:17:56;83765.33;;;21.96;14.28
73234;BME280;62293;-26.174;27.908;2022-08-20T09:20:21;83756.20;;;22.40;13.37
73234;BME280;62293;-26.174;27.908;2022-08-20T09:22:46;83756.51;;;22.70;13.69
73234;BME280;62293;-26.174;27.908;2022-08-20T09:25:11;83754.17;;;22.85;13.50
73234;BME280;62293;-26.174;27.908;2022-08-20T09:27:37;83743.76;;;22.53;13.66
73234;BME280;62293;-26.174;27.908;2022-08-20T09:30:03;83739.92;;;22.27;13.79
73234;BME280;62293;-26.174;27.908;2022-08-20T09:32:28;83749.19;;;22.27;13.78
73234;BME280;62293;-26.174;27.908;2022-08-20T09:34:54;83748.26;;;22.71;13.28
73234;BME280;62293;-26.174;27.908;2022-08-20T09:37:18;83742.18;;;22.61;13.52
73234;BME280;62293;-26.174;27.908;2022-08-20T09:39:44;83743.13;;;22.58;13.17
73234;BME280;62293;-26.174;27.908;2022-08-20T09:42:12;83738.30;;;23.07;13.03
73234;BME280;62293;-26.174;27.908;2022-08-20T09:44:34;83740.38;;;21.86;13.21
73234;BME280;62293;-26.174;27.908;2022-08-20T09:46:59;83733.55;;;22.83;13.07
73234;BME280;62293;-26.174;27.908;2022-08-20T09:49:25;83724.38;;;22.39;13.27
73234;BME280;62293;-26.174;27.908;2022-08-20T09:51:50;83725.05;;;22.41;13.05
73234;BME280;62293;-26.174;27.908;2022-08-20T09:54:16;83721.13;;;22.54;13.15
73234;BME280;62293;-26.174;27.908;2022-08-20T09:56:41;83724.13;;;22.17;13.09
73234;BME280;62293;-26.174;27.908;2022-08-20T09:59:06;83728.37;;;22.40;12.76
73234;BME280;62293;-26.174;27.908;2022-08-20T10:01:31;83722.91;;;22.97;12.35
73234;BME280;62293;-26.174;27.908;2022-08-20T10:03:58;83718.09;;;23.15;12.47
73234;BME280;62293;-26.174;27.908;2022-08-20T10:06:23;83718.55;;;22.34;12.87
73234;BME280;62293;-26.174;27.908;2022-08-20T10:08:49;83704.03;;;22.14;13.28
73234;BME280;62293;-26.174;27.908;2022-08-20T10:11:13;83714.10;;;22.78;12.87
73234;BME280;62293;-26.174;27.908;2022-08-20T10:13:38;83710.75;;;22.37;12.91
73234;BME280;62293;-26.174;27.908;2022-08-20T10:16:04;83700.38;;;22.46;12.68
73234;BME280;62293;-26.174;27.908;2022-08-20T10:18:29;83705.21;;;22.84;12.48
73234;BME280;62293;-26.174;27.908;2022-08-20T10:20:54;83690.51;;;22.63;12.64
73234;BME280;62293;-26.174;27.908;2022-08-20T10:23:19;83692.46;;;21.58;13.34
73234;BME280;62293;-26.174;27.908;2022-08-20T10:25:45;83700.21;;;22.82;12.66
73234;BME280;62293;-26.174;27.908;2022-08-20T10:28:10;83700.31;;;23.02;12.67
73234;BME280;62293;-26.174;27.908;2022-08-20T10:30:35;83686.97;;;23.02;12.50
73234;BME280;62293;-26.174;27.908;2022-08-20T10:33:01;83694.50;;;22.54;12.53
73234;BME280;62293;-26.174;27.908;2022-08-20T10:35:28;83696.18;;;23.04;12.44
73234;BME280;62293;-26.174;27.908;2022-08-20T10:37:52;83698.91;;;22.03;12.93
73234;BME280;62293;-26.174;27.908;2022-08-20T10:40:18;83699.15;;;22.76;12.05
73234;BME280;62293;-26.174;27.908;2022-08-20T10:42:44;83696.22;;;22.79;11.96
73234;BME280;62293;-26.174;27.908;2022-08-20T10:45:09;83690.93;;;22.35;12.71
73234;BME280;62293;-26.174;27.908;2022-08-20T10:47:35;83691.43;;;23.04;11.71
73234;BME280;62293;-26.174;27.908;2022-08-20T10:50:01;83688.64;;;22.91;11.67
73234;BME280;62293;-26.174;27.908;2022-08-20T10:52:25;83681.24;;;23.44;11.50
73234;BME280;62293;-26.174;27.908;2022-08-20T10:54:51;83674.05;;;23.36;11.65
73234;BME280;62293;-26.174;27.908;2022-08-20T10:57:17;83676.11;;;23.03;11.26
73234;BME280;62293;-26.174;27.908;2022-08-20T10:59:42;83676.40;;;22.70;11.18
73234;BME280;62293;-26.174;27.908;2022-08-20T11:02:06;83674.48;;;22.74;11.46
73234;BME280;62293;-26.174;27.908;2022-08-20T11:04:31;83671.00;;;22.71;10.67
73234;BME280;62293;-26.174;27.908;2022-08-20T11:06:57;83662.82;;;22.72;10.59
73234;BME280;62293;-26.174;27.908;2022-08-20T11:09:22;83657.02;;;22.93;10.31
73234;BME280;62293;-26.174;27.908;2022-08-20T11:11:47;83652.39;;;22.70;11.00
73234;BME280;62293;-26.174;27.908;2022-08-20T11:14:13;83657.93;;;22.50;10.81
73234;BME280;62293;-26.174;27.908;2022-08-20T11:16:38;83658.49;;;23.45;10.37
73234;BME280;62293;-26.174;27.908;2022-08-20T11:19:04;83655.09;;;23.37;9.72
73234;BME280;62293;-26.174;27.908;2022-08-20T11:21:29;83650.72;;;22.62;9.39
73234;BME280;62293;-26.174;27.908;2022-08-20T11:23:55;83645.90;;;22.66;9.97
73234;BME280;62293;-26.174;27.908;2022-08-20T11:26:22;83645.34;;;23.06;9.86
73234;BME280;62293;-26.174;27.908;2022-08-20T11:28:46;83648.22;;;22.85;9.77
73234;BME280;62293;-26.174;27.908;2022-08-20T11:31:12;83634.80;;;22.79;9.38
73234;BME280;62293;-26.174;27.908;2022-08-20T11:33:38;83626.93;;;22.82;9.42
73234;BME280;62293;-26.174;27.908;2022-08-20T11:36:04;83623.07;;;22.72;9.36
73234;BME280;62293;-26.174;27.908;2022-08-20T11:38:29;83625.89;;;23.24;9.52
73234;BME280;62293;-26.174;27.908;2022-08-20T11:40:54;83630.03;;;23.11;9.50
73234;BME280;62293;-26.174;27.908;2022-08-20T11:43:19;83633.61;;;22.22;9.77
73234;BME280;62293;-26.174;27.908;2022-08-20T11:45:46;83627.03;;;23.17;9.29
73234;BME280;62293;-26.174;27.908;2022-08-20T11:48:10;83623.21;;;23.06;9.46
73234;BME280;62293;-26.174;27.908;2022-08-20T11:50:35;83617.66;;;22.87;9.23
73234;BME280;62293;-26.174;27.908;2022-08-20T11:53:00;83612.69;;;22.93;9.43
73234;BME280;62293;-26.174;27.908;2022-08-20T11:55:26;83608.30;;;23.36;9.61
73234;BME280;62293;-26.174;27.908;2022-08-20T11:57:51;83611.77;;;22.78;9.22
73234;BME280;62293;-26.174;27.908;2022-08-20T12:00:19;83608.95;;;23.42;9.05
73234;BME280;62293;-26.174;27.908;2022-08-20T12:02:42;83608.36;;;22.61;9.45
73234;BME280;62293;-26.174;27.908;2022-08-20T12:05:09;83604.52;;;22.91;9.03
73234;BME280;62293;-26.174;27.908;2022-08-20T12:07:33;83608.22;;;23.35;8.83
73234;BME280;62293;-26.174;27.908;2022-08-20T12:09:58;83608.46;;;22.95;8.79
73234;BME280;62293;-26.174;27.908;2022-08-20T12:12:24;83607.18;;;22.94;8.81
73234;BME280;62293;-26.174;27.908;2022-08-20T12:14:49;83600.22;;;22.51;9.15
73234;BME280;62293;-26.174;27.908;2022-08-20T12:17:16;83600.48;;;22.72;9.29
73234;BME280;62293;-26.174;27.908;2022-08-20T12:19:40;83616.30;;;23.09;9.23
73234;BME280;62293;-26.174;27.908;2022-08-20T12:22:04;83615.56;;;22.42;9.27
73234;BME280;62293;-26.174;27.908;2022-08-20T12:24:29;83606.54;;;22.66;8.88
73234;BME280;62293;-26.174;27.908;2022-08-20T12:26:55;83607.70;;;22.96;8.83
73234;BME280;62293;-26.174;27.908;2022-08-20T12:29:20;83617.13;;;22.68;8.81
73234;BME280;62293;-26.174;27.908;2022-08-20T12:31:46;83608.62;;;22.34;8.99
73234;BME280;62293;-26.174;27.908;2022-08-20T12:34:11;83611.01;;;22.91;9.25
73234;BME280;62293;-26.174;27.908;2022-08-20T12:36:36;83617.07;;;22.65;9.22
73234;BME280;62293;-26.174;27.908;2022-08-20T12:39:01;83610.43;;;22.74;8.65
73234;BME280;62293;-26.174;27.908;2022-08-20T12:41:28;83602.03;;;22.29;9.01
73234;BME280;62293;-26.174;27.908;2022-08-20T12:43:53;83619.92;;;22.47;8.97
73234;BME280;62293;-26.174;27.908;2022-08-20T12:46:18;83622.30;;;22.91;8.72
73234;BME280;62293;-26.174;27.908;2022-08-20T12:48:43;83614.71;;;22.26;8.97
73234;BME280;62293;-26.174;27.908;2022-08-20T12:51:09;83606.76;;;22.22;9.11
73234;BME280;62293;-26.174;27.908;2022-08-20T12:53:34;83615.01;;;22.37;8.81
73234;BME280;62293;-26.174;27.908;2022-08-20T12:55:59;83609.77;;;22.81;8.93
73234;BME280;62293;-26.174;27.908;2022-08-20T12:58:25;83600.74;;;22.44;8.98
73234;BME280;62293;-26.174;27.908;2022-08-20T13:00:50;83600.66;;;22.50;8.97
73234;BME280;62293;-26.174;27.908;2022-08-20T13:03:15;83593.75;;;22.25;8.95
73234;BME280;62293;-26.174;27.908;2022-08-20T13:05:40;83598.94;;;22.62;8.87
73234;BME280;62293;-26.174;27.908;2022-08-20T13:08:06;83593.45;;;22.48;8.94
73234;BME280;62293;-26.174;27.908;2022-08-20T13:10:33;83597.03;;;22.81;9.00
73234;BME280;62293;-26.174;27.908;2022-08-20T13:12:56;83592.81;;;22.46;8.86
73234;BME280;62293;-26.174;27.908;2022-08-20T13:15:22;83599.83;;;22.60;8.97
73234;BME280;62293;-26.174;27.908;2022-08-20T13:17:51;83598.55;;;21.94;9.34
73234;BME280;62293;-26.174;27.908;2022-08-20T13:20:14;83594.77;;;22.37;8.85
73234;BME280;62293;-26.174;27.908;2022-08-20T13:22:37;83596.67;;;22.37;9.11
73234;BME280;62293;-26.174;27.908;2022-08-20T13:25:02;83600.89;;;22.29;9.04
73234;BME280;62293;-26.174;27.908;2022-08-20T13:27:28;83600.06;;;22.33;8.95
73234;BME280;62293;-26.174;27.908;2022-08-20T13:29:54;83595.29;;;22.82;8.57
73234;BME280;62293;-26.174;27.908;2022-08-20T13:32:19;83590.88;;;22.60;8.36
73234;BME280;62293;-26.174;27.908;2022-08-20T13:34:45;83594.68;;;23.08;8.51
73234;BME280;62293;-26.174;27.908;2022-08-20T13:37:12;83591.14;;;22.77;8.68
73234;BME280;62293;-26.174;27.908;2022-08-20T13:39:38;83596.53;;;22.50;8.75
73234;BME280;62293;-26.174;27.908;2022-08-20T13:42:01;83601.49;;;22.68;8.73
73234;BME280;62293;-26.174;27.908;2022-08-20T13:44:27;83601.73;;;22.34;8.72
73234;BME280;62293;-26.174;27.908;2022-08-20T13:46:51;83607.72;;;22.68;8.60
73234;BME280;62293;-26.174;27.908;2022-08-20T13:49:17;83604.75;;;22.23;9.00
73234;BME280;62293;-26.174;27.908;2022-08-20T13:51:43;83605.59;;;22.66;8.88
73234;BME280;62293;-26.174;27.908;2022-08-20T13:54:08;83606.23;;;22.09;8.90
73234;BME280;62293;-26.174;27.908;2022-08-20T13:56:33;83611.38;;;22.59;8.77
73234;BME280;62293;-26.174;27.908;2022-08-20T13:58:58;83613.19;;;22.14;8.88
73234;BME280;62293;-26.174;27.908;2022-08-20T14:01:23;83608.73;;;22.61;8.75
73234;BME280;62293;-26.174;27.908;2022-08-20T14:03:48;83618.69;;;22.16;9.03
73234;BME280;62293;-26.174;27.908;2022-08-20T14:06:14;83620.60;;;22.24;8.95
73234;BME280;62293;-26.174;27.908;2022-08-20T14:08:40;83623.94;;;22.67;8.90
73234;BME280;62293;-26.174;27.908;2022-08-20T14:11:05;83636.21;;;21.95;8.96
73234;BME280;62293;-26.174;27.908;2022-08-20T14:13:30;83626.32;;;22.41;9.02
73234;BME280;62293;-26.174;27.908;2022-08-20T14:15:56;83638.17;;;22.33;8.99
73234;BME280;62293;-26.174;27.908;2022-08-20T14:18:21;83635.48;;;22.32;9.24
73234;BME280;62293;-26.174;27.908;2022-08-20T14:20:47;83635.46;;;21.93;9.12
73234;BME280;62293;-26.174;27.908;2022-08-20T14:23:13;83642.44;;;21.89;9.14
73234;BME280;62293;-26.174;27.908;2022-08-20T14:25:38;83643.36;;;22.23;9.09
73234;BME280;62293;-26.174;27.908;2022-08-20T14:28:08;83648.89;;;22.22;8.99
73234;BME280;62293;-26.174;27.908;2022-08-20T14:30:29;83651.37;;;22.48;9.27
73234;BME280;62293;-26.174;27.908;2022-08-20T14:32:54;83655.41;;;22.52;9.21
73234;BME280;62293;-26.174;27.908;2022-08-20T14:35:19;83665.95;;;22.11;9.26
73234;BME280;62293;-26.174;27.908;2022-08-20T14:37:46;83666.56;;;22.18;9.34
73234;BME280;62293;-26.174;27.908;2022-08-20T14:40:12;83668.59;;;22.08;9.46
73234;BME280;62293;-26.174;27.908;2022-08-20T14:42:35;83661.57;;;21.88;9.54
73234;BME280;62293;-26.174;27.908;2022-08-20T14:45:00;83661.15;;;22.52;9.41
73234;BME280;62293;-26.174;27.908;2022-08-20T14:47:30;83660.36;;;22.32;9.50
73234;BME280;62293;-26.174;27.908;2022-08-20T14:49:52;83663.44;;;21.98;9.51
73234;BME280;62293;-26.174;27.908;2022-08-20T14:52:18;83670.51;;;22.22;9.52
73234;BME280;62293;-26.174;27.908;2022-08-20T14:54:42;83668.58;;;21.74;9.66
73234;BME280;62293;-26.174;27.908;2022-08-20T14:57:08;83665.96;;;22.17;9.54
73234;BME280;62293;-26.174;27.908;2022-08-20T14:59:32;83662.24;;;22.10;9.85
73234;BME280;62293;-26.174;27.908;2022-08-20T15:01:57;83664.23;;;22.22;9.82
73234;BME280;62293;-26.174;27.908;2022-08-20T15:04:23;83671.13;;;21.60;10.07
73234;BME280;62293;-26.174;27.908;2022-08-20T15:06:49;83671.20;;;21.57;9.94
73234;BME280;62293;-26.174;27.908;2022-08-20T15:09:13;83676.94;;;21.87;9.74
73234;BME280;62293;-26.174;27.908;2022-08-20T15:11:38;83680.34;;;22.01;9.88
73234;BME280;62293;-26.174;27.908;2022-08-20T15:14:04;83680.81;;;21.63;9.95
73234;BME280;62293;-26.174;27.908;2022-08-20T15:16:30;83687.06;;;22.00;10.19
73234;BME280;62293;-26.174;27.908;2022-08-20T15:18:54;83693.62;;;21.96;9.94
73234;BME280;62293;-26.174;27.908;2022-08-20T15:21:19;83697.70;;;22.06;10.09
73234;BME280;62293;-26.174;27.908;2022-08-20T15:23:45;83705.13;;;21.88;10.23
73234;BME280;62293;-26.174;27.908;2022-08-20T15:26:10;83710.30;;;21.98;10.04
73234;BME280;62293;-26.174;27.908;2022-08-20T15:28:36;83724.69;;;22.06;10.19
73234;BME280;62293;-26.174;27.908;2022-08-20T15:31:07;83729.13;;;22.26;10.00
73234;BME280;62293;-26.174;27.908;2022-08-20T15:33:27;83726.98;;;21.82;10.31
73234;BME280;62293;-26.174;27.908;2022-08-20T15:35:52;83727.23;;;21.37;10.71
73234;BME280;62293;-26.174;27.908;2022-08-20T15:38:18;83727.11;;;21.60;10.47
73234;BME280;62293;-26.174;27.908;2022-08-20T15:40:43;83735.39;;;21.91;10.47
73234;BME280;62293;-26.174;27.908;2022-08-20T15:43:09;83736.59;;;22.34;10.43
73234;BME280;62293;-26.174;27.908;2022-08-20T15:45:35;83735.94;;;21.85;10.77
73234;BME280;62293;-26.174;27.908;2022-08-20T15:48:06;83742.89;;;21.59;10.94
73234;BME280;62293;-26.174;27.908;2022-08-20T15:50:41;83746.99;;;21.74;10.92
73234;BME280;62293;-26.174;27.908;2022-08-20T15:52:50;83747.13;;;20.99;11.22
73234;BME280;62293;-26.174;27.908;2022-08-20T15:55:15;83750.11;;;21.23;11.25
73234;BME280;62293;-26.174;27.908;2022-08-20T15:57:48;83759.70;;;20.91;11.57
73234;BME280;62293;-26.174;27.908;2022-08-20T16:00:10;83766.23;;;21.35;11.66
73234;BME280;62293;-26.174;27.908;2022-08-20T16:02:52;83767.07;;;20.35;12.11
73234;BME280;62293;-26.174;27.908;2022-08-20T16:05:11;83766.64;;;20.95;12.05
73234;BME280;62293;-26.174;27.908;2022-08-20T16:07:27;83771.40;;;20.90;12.14
73234;BME280;62293;-26.174;27.908;2022-08-20T16:09:58;83777.62;;;21.01;12.12
73234;BME280;62293;-26.174;27.908;2022-08-20T16:12:17;83781.25;;;21.31;12.04
73234;BME280;62293;-26.174;27.908;2022-08-20T16:14:41;83781.02;;;21.55;12.13
73234;BME280;62293;-26.174;27.908;2022-08-20T16:17:06;83784.63;;;21.37;12.09
73234;BME280;62293;-26.174;27.908;2022-08-20T16:19:38;83787.23;;;21.26;12.44
73234;BME280;62293;-26.174;27.908;2022-08-20T16:21:58;83787.48;;;21.31;12.48
73234;BME280;62293;-26.174;27.908;2022-08-20T16:24:21;83792.32;;;21.01;12.90
73234;BME280;62293;-26.174;27.908;2022-08-20T16:27:02;83790.09;;;20.78;13.30
73234;BME280;62293;-26.174;27.908;2022-08-20T16:29:17;83791.84;;;20.84;13.38
73234;BME280;62293;-26.174;27.908;2022-08-20T16:31:41;83794.63;;;21.07;13.70
73234;BME280;62293;-26.174;27.908;2022-08-20T16:34:08;83796.76;;;21.06;13.31
73234;BME280;62293;-26.174;27.908;2022-08-20T16:36:33;83799.29;;;21.35;13.29
73234;BME280;62293;-26.174;27.908;2022-08-20T16:38:58;83804.52;;;21.20;13.25
73234;BME280;62293;-26.174;27.908;2022-08-20T16:41:23;83804.33;;;20.51;13.52
73234;BME280;62293;-26.174;27.908;2022-08-20T16:43:50;83809.05;;;21.33;13.19
73234;BME280;62293;-26.174;27.908;2022-08-20T16:46:15;83808.60;;;20.34;13.66
73234;BME280;62293;-26.174;27.908;2022-08-20T16:48:41;83813.25;;;20.65;13.59
73234;BME280;62293;-26.174;27.908;2022-08-20T16:51:04;83817.10;;;20.49;13.68
73234;BME280;62293;-26.174;27.908;2022-08-20T16:53:27;83824.62;;;20.45;13.63
73234;BME280;62293;-26.174;27.908;2022-08-20T16:55:51;83825.30;;;20.62;13.68
73234;BME280;62293;-26.174;27.908;2022-08-20T16:58:17;83823.18;;;20.39;13.87
73234;BME280;62293;-26.174;27.908;2022-08-20T17:00:44;83828.06;;;21.04;13.71
73234;BME280;62293;-26.174;27.908;2022-08-20T17:03:17;83831.61;;;20.41;13.79
73234;BME280;62293;-26.174;27.908;2022-08-20T17:05:44;83840.72;;;20.90;13.80
73234;BME280;62293;-26.174;27.908;2022-08-20T17:08:01;83845.14;;;20.52;14.00
73234;BME280;62293;-26.174;27.908;2022-08-20T17:10:28;83852.78;;;20.59;13.87
73234;BME280;62293;-26.174;27.908;2022-08-20T17:12:56;83858.42;;;20.17;14.15
73234;BME280;62293;-26.174;27.908;2022-08-20T17:15:21;83863.52;;;19.98;14.18
73234;BME280;62293;-26.174;27.908;2022-08-20T17:17:40;83872.68;;;20.06;14.13
73234;BME280;62293;-26.174;27.908;2022-08-20T17:20:11;83883.23;;;20.12;14.15
73234;BME280;62293;-26.174;27.908;2022-08-20T17:22:39;83883.67;;;20.49;14.01
73234;BME280;62293;-26.174;27.908;2022-08-20T17:24:56;83884.78;;;20.00;14.16
73234;BME280;62293;-26.174;27.908;2022-08-20T17:27:35;83882.67;;;19.77;14.53
73234;BME280;62293;-26.174;27.908;2022-08-20T17:29:52;83869.51;;;20.60;14.16
73234;BME280;62293;-26.174;27.908;2022-08-20T17:32:17;83878.78;;;19.95;14.47
73234;BME280;62293;-26.174;27.908;2022-08-20T17:34:42;83885.37;;;19.85;14.55
73234;BME280;62293;-26.174;27.908;2022-08-20T17:37:06;83889.35;;;19.87;14.42
73234;BME280;62293;-26.174;27.908;2022-08-20T17:39:28;83893.16;;;19.88;14.53
73234;BME280;62293;-26.174;27.908;2022-08-20T17:42:02;83893.77;;;19.53;14.61
73234;BME280;62293;-26.174;27.908;2022-08-20T17:44:21;83884.30;;;20.19;14.30
73234;BME280;62293;-26.174;27.908;2022-08-20T17:46:46;83885.31;;;20.20;14.42
73234;BME280;62293;-26.174;27.908;2022-08-20T17:49:10;83880.79;;;19.93;14.58
73234;BME280;62293;-26.174;27.908;2022-08-20T17:51:37;83880.17;;;19.95;14.48
73234;BME280;62293;-26.174;27.908;2022-08-20T17:54:05;83890.90;;;19.70;14.72
73234;BME280;62293;-26.174;27.908;2022-08-20T17:56:28;83893.85;;;20.06;14.76
73234;BME280;62293;-26.174;27.908;2022-08-20T17:58:52;83895.19;;;18.73;15.21
73234;BME280;62293;-26.174;27.908;2022-08-20T18:01:17;83900.28;;;19.55;14.96
73234;BME280;62293;-26.174;27.908;2022-08-20T18:03:39;83907.14;;;19.87;14.72
73234;BME280;62293;-26.174;27.908;2022-08-20T18:06:09;83912.94;;;19.17;15.13
73234;BME280;62293;-26.174;27.908;2022-08-20T18:08:38;83914.81;;;20.43;14.58
73234;BME280;62293;-26.174;27.908;2022-08-20T18:11:00;83914.68;;;19.16;15.19
73234;BME280;62293;-26.174;27.908;2022-08-20T18:13:29;83918.52;;;19.27;15.23
73234;BME280;62293;-26.174;27.908;2022-08-20T18:15:52;83920.16;;;19.89;15.12
73234;BME280;62293;-26.174;27.908;2022-08-20T18:18:21;83928.53;;;19.75;14.87
73234;BME280;62293;-26.174;27.908;2022-08-20T18:20:51;83931.17;;;18.72;15.65
73234;BME280;62293;-26.174;27.908;2022-08-20T18:23:05;83922.31;;;18.89;15.50
73234;BME280;62293;-26.174;27.908;2022-08-20T18:25:30;83917.86;;;19.42;15.47
73234;BME280;62293;-26.174;27.908;2022-08-20T18:27:57;83910.99;;;18.60;15.70
73234;BME280;62293;-26.174;27.908;2022-08-20T18:30:21;83902.54;;;19.02;15.77
73234;BME280;62293;-26.174;27.908;2022-08-20T18:32:44;83895.27;;;18.62;15.70
73234;BME280;62293;-26.174;27.908;2022-08-20T18:35:11;83905.34;;;19.34;15.49
73234;BME280;62293;-26.174;27.908;2022-08-20T18:37:34;83913.98;;;19.00;15.56
73234;BME280;62293;-26.174;27.908;2022-08-20T18:40:06;83912.57;;;19.67;15.36
73234;BME280;62293;-26.174;27.908;2022-08-20T18:42:28;83914.84;;;18.97;15.53
73234;BME280;62293;-26.174;27.908;2022-08-20T18:44:52;83916.60;;;19.39;15.58
73234;BME280;62293;-26.174;27.908;2022-08-20T18:47:21;83919.64;;;18.72;15.73
73234;BME280;62293;-26.174;27.908;2022-08-20T18:49:41;83926.12;;;19.55;15.44
73234;BME280;62293;-26.174;27.908;2022-08-20T18:52:12;83932.72;;;19.49;15.59
73234;BME280;62293;-26.174;27.908;2022-08-20T18:54:32;83920.60;;;18.59;15.79
73234;BME280;62293;-26.174;27.908;2022-08-20T18:57:02;83917.41;;;18.89;15.80
73234;BME280;62293;-26.174;27.908;2022-08-20T18:59:25;83918.95;;;19.11;15.55
73234;BME280;62293;-26.174;27.908;2022-08-20T19:01:48;83927.21;;;19.21;15.71
73234;BME280;62293;-26.174;27.908;2022-08-20T19:04:19;83932.36;;;18.77;15.88
73234;BME280;62293;-26.174;27.908;2022-08-20T19:06:42;83934.99;;;18.49;16.15
73234;BME280;62293;-26.174;27.908;2022-08-20T19:09:10;83935.60;;;19.05;16.16
73234;BME280;62293;-26.174;27.908;2022-08-20T19:11:41;83933.87;;;18.96;16.16
73234;BME280;62293;-26.174;27.908;2022-08-20T19:14:04;83934.91;;;19.02;15.81
73234;BME280;62293;-26.174;27.908;2022-08-20T19:16:25;83936.85;;;19.28;15.92
73234;BME280;62293;-26.174;27.908;2022-08-20T19:18:48;83946.20;;;18.91;16.09
73234;BME280;62293;-26.174;27.908;2022-08-20T19:21:12;83948.80;;;18.61;16.21
73234;BME280;62293;-26.174;27.908;2022-08-20T19:23:40;83949.93;;;18.66;16.11
73234;BME280;62293;-26.174;27.908;2022-08-20T19:26:04;83954.70;;;18.61;16.33
73234;BME280;62293;-26.174;27.908;2022-08-20T19:28:30;83961.16;;;19.00;16.13
73234;BME280;62293;-26.174;27.908;2022-08-20T19:30:52;83970.50;;;18.09;16.60
73234;BME280;62293;-26.174;27.908;2022-08-20T19:33:25;83975.47;;;19.05;16.11
73234;BME280;62293;-26.174;27.908;2022-08-20T19:35:42;83976.31;;;18.49;16.51
73234;BME280;62293;-26.174;27.908;2022-08-20T19:38:14;83972.38;;;18.55;16.45
73234;BME280;62293;-26.174;27.908;2022-08-20T19:40:36;83979.54;;;18.68;16.27
73234;BME280;62293;-26.174;27.908;2022-08-20T19:43:00;83988.80;;;18.82;16.25
73234;BME280;62293;-26.174;27.908;2022-08-20T19:45:29;83999.81;;;18.90;16.43
73234;BME280;62293;-26.174;27.908;2022-08-20T19:47:56;83999.53;;;19.30;15.96
73234;BME280;62293;-26.174;27.908;2022-08-20T19:50:18;83999.70;;;18.89;16.20
73234;BME280;62293;-26.174;27.908;2022-08-20T19:52:47;83998.82;;;18.53;16.38